TimeCST,TemperatureF,Dew PointF,Humidity,Sea Level PressureIn,VisibilityMPH,Wind Direction,Wind SpeedMPH,Gust SpeedMPH,PrecipitationIn,Events,Conditions,WindDirDegrees,DateUTC
12:03 AM,48.2,46.4,93,29.88,2.5,South,4.6,-,N/A,,Overcast,180,2012-12-24 06:03:00
12:15 AM,48.2,46.4,93,29.87,4.0,South,4.6,-,0.02,Rain,Light Rain,180,2012-12-24 06:15:00
12:53 AM,48.9,46.9,93,29.86,6.0,South,4.6,-,0.07,Rain,Light Rain,180,2012-12-24 06:53:00
1:53 AM,48.9,46.9,93,29.85,2.5,South,5.8,-,0.01,,Overcast,180,2012-12-24 07:53:00
2:07 AM,48.2,46.4,93,29.85,5.0,South,5.8,-,0.00,,Overcast,180,2012-12-24 08:07:00
2:53 AM,48.9,46.9,93,29.83,10.0,Calm,Calm,-,0.00,,Overcast,0,2012-12-24 08:53:00
3:53 AM,48.9,46.9,93,29.81,9.0,South,5.8,-,N/A,,Overcast,180,2012-12-24 09:53:00
4:19 AM,48.2,46.4,93,29.80,4.0,South,4.6,-,N/A,,Overcast,170,2012-12-24 10:19:00
4:53 AM,48.9,46.9,93,29.80,4.0,Calm,Calm,-,0.01,,Overcast,0,2012-12-24 10:53:00
6:06 AM,48.2,48.2,100,29.79,5.0,South,3.5,-,N/A,,Overcast,170,2012-12-24 12:06:00
6:53 AM,48.9,48.0,97,29.80,6.0,South,3.5,-,N/A,,Overcast,180,2012-12-24 12:53:00
7:53 AM,50.0,46.9,89,29.81,8.0,SW,3.5,-,N/A,,Overcast,220,2012-12-24 13:53:00
8:53 AM,50.0,48.0,93,29.82,8.0,WSW,3.5,-,N/A,,Overcast,240,2012-12-24 14:53:00
9:07 AM,51.8,48.2,88,29.83,9.0,SW,3.5,-,N/A,,Overcast,230,2012-12-24 15:07:00
9:53 AM,52.0,48.9,89,29.86,10.0,WSW,4.6,-,N/A,,Overcast,240,2012-12-24 15:53:00
10:53 AM,53.1,48.9,86,29.86,10.0,WNW,8.1,-,N/A,,Overcast,300,2012-12-24 16:53:00
11:06 AM,53.6,50.0,88,29.85,10.0,WNW,6.9,-,N/A,,Overcast,290,2012-12-24 17:06:00
11:16 AM,53.6,50.0,88,29.85,10.0,WNW,6.9,-,N/A,,Overcast,290,2012-12-24 17:16:00
11:28 AM,55.4,48.2,77,29.85,10.0,WNW,6.9,-,N/A,,Overcast,300,2012-12-24 17:28:00
11:53 AM,55.9,48.0,75,29.83,10.0,West,5.8,-,N/A,,Mostly Cloudy,270,2012-12-24 17:53:00
12:53 PM,55.9,46.9,72,29.83,10.0,NW,4.6,-,N/A,,Overcast,310,2012-12-24 18:53:00
1:53 PM,55.0,46.9,74,29.83,10.0,West,5.8,-,N/A,,Overcast,280,2012-12-24 19:53:00
2:53 PM,54.0,46.9,77,29.84,10.0,WNW,3.5,-,N/A,,Overcast,290,2012-12-24 20:53:00
3:53 PM,54.0,46.9,77,29.85,10.0,WSW,3.5,-,N/A,,Overcast,240,2012-12-24 21:53:00
4:28 PM,51.8,46.4,82,29.89,7.0,NNW,8.1,-,N/A,,Overcast,340,2012-12-24 22:28:00
4:38 PM,48.2,44.6,87,29.90,5.0,NW,8.1,-,N/A,,Overcast,320,2012-12-24 22:38:00
4:53 PM,48.9,45.0,86,29.91,7.0,NW,6.9,-,N/A,,Overcast,310,2012-12-24 22:53:00
5:06 PM,48.2,44.6,87,29.91,7.0,NW,9.2,-,N/A,,Overcast,310,2012-12-24 23:06:00
5:53 PM,46.9,42.1,83,29.92,7.0,NNW,8.1,-,N/A,,Overcast,330,2012-12-24 23:53:00
6:28 PM,46.4,42.8,87,29.93,7.0,NW,5.8,-,N/A,,Overcast,320,2012-12-25 00:28:00
6:53 PM,46.9,41.0,80,29.94,7.0,NNW,4.6,-,N/A,,Overcast,340,2012-12-25 00:53:00
7:37 PM,46.4,39.2,76,29.97,7.0,NNW,10.4,16.1,N/A,,Overcast,330,2012-12-25 01:37:00
7:53 PM,42.1,36.0,79,29.98,6.0,NNW,9.2,-,N/A,,Haze,330,2012-12-25 01:53:00
8:35 PM,39.2,33.8,81,30.01,5.0,NW,8.1,-,N/A,,Haze,320,2012-12-25 02:35:00
8:53 PM,37.9,33.1,83,30.02,5.0,NW,8.1,-,N/A,,Haze,320,2012-12-25 02:53:00
9:21 PM,37.4,32.0,81,30.03,5.0,NNW,6.9,-,N/A,,Haze,330,2012-12-25 03:21:00
9:53 PM,37.0,32.0,82,30.05,5.0,WNW,6.9,-,N/A,,Haze,300,2012-12-25 03:53:00
10:53 PM,36.0,30.9,82,30.06,5.0,NNW,5.8,-,N/A,,Haze,330,2012-12-25 04:53:00
11:53 PM,35.1,28.9,78,30.06,6.0,NNW,6.9,-,N/A,,Haze,340,2012-12-25 05:53:00